sensor_id;sensor_type;location;lat;lon;timestamp;pressure;altitude;pressure_sealevel;temperature;humidity
38786;BME280;24535;45.508;12.252;2023-10-13T00:05:19;102026.53;;;23.56;65.60
38786;BME280;24535;45.508;12.252;2023-10-13T02:06:58;101974.69;;;23.98;65.71
38786;BME280;24535;45.508;12.252;2023-10-13T02:09:23;101972.81;;;23.98;65.85
38786;BME280;24535;45.508;12.252;2023-10-13T03:48:36;101964.22;;;23.86;65.82
38786;BME280;24535;45.508;12.252;2023-10-13T05:58:26;102020.03;;;23.84;66.48
38786;BME280;24535;45.508;12.252;2023-10-13T06:01:11;102023.56;;;23.85;66.50
38786;BME280;24535;45.508;12.252;2023-10-13T06:04:05;102030.81;;;23.84;66.33
38786;BME280;24535;45.508;12.252;2023-10-13T06:06:49;102031.50;;;23.86;66.57
38786;BME280;24535;45.508;12.252;2023-10-13T06:09:33;102035.88;;;23.87;66.54
38786;BME280;24535;45.508;12.252;2023-10-13T06:12:17;102041.25;;;23.87;66.16
38786;BME280;24535;45.508;12.252;2023-10-13T06:15:01;102044.63;;;23.89;66.42
38786;BME280;24535;45.508;12.252;2023-10-13T06:17:45;102051.88;;;23.89;66.37
38786;BME280;24535;45.508;12.252;2023-10-13T06:20:28;102044.50;;;23.91;66.16
38786;BME280;24535;45.508;12.252;2023-10-13T06:23:13;102053.41;;;23.91;66.27
38786;BME280;24535;45.508;12.252;2023-10-13T06:25:57;102051.38;;;23.93;66.37
38786;BME280;24535;45.508;12.252;2023-10-13T06:28:41;102049.69;;;23.92;66.50
38786;BME280;24535;45.508;12.252;2023-10-13T06:31:09;102048.69;;;23.93;66.42
38786;BME280;24535;45.508;12.252;2023-10-13T06:33:46;102051.38;;;23.93;66.52
38786;BME280;24535;45.508;12.252;2023-10-13T06:36:12;102058.47;;;23.95;66.45
38786;BME280;24535;45.508;12.252;2023-10-13T06:38:37;102061.19;;;23.95;66.55
38786;BME280;24535;45.508;12.252;2023-10-13T06:41:03;102064.53;;;23.97;66.43
38786;BME280;24535;45.508;12.252;2023-10-13T06:43:32;102066.22;;;23.98;66.58
38786;BME280;24535;45.508;12.252;2023-10-13T06:45:58;102070.75;;;23.97;66.34
38786;BME280;24535;45.508;12.252;2023-10-13T06:48:28;102072.31;;;24.00;66.11
38786;BME280;24535;45.508;12.252;2023-10-13T06:51:00;102068.28;;;24.04;66.04
38786;BME280;24535;45.508;12.252;2023-10-13T06:53:31;102071.66;;;24.06;66.39
38786;BME280;24535;45.508;12.252;2023-10-13T06:56:05;102079.59;;;24.07;66.26
38786;BME280;24535;45.508;12.252;2023-10-13T06:58:36;102083.81;;;24.10;66.15
38786;BME280;24535;45.508;12.252;2023-10-13T07:01:08;102088.03;;;24.12;66.15
38786;BME280;24535;45.508;12.252;2023-10-13T07:03:40;102092.41;;;24.13;66.19
38786;BME280;24535;45.508;12.252;2023-10-13T07:06:08;102094.97;;;24.15;65.99
38786;BME280;24535;45.508;12.252;2023-10-13T07:08:43;102096.66;;;24.16;66.22
38786;BME280;24535;45.508;12.252;2023-10-13T07:11:11;102092.81;;;24.18;65.42
38786;BME280;24535;45.508;12.252;2023-10-13T07:13:44;102099.88;;;24.20;65.79
38786;BME280;24535;45.508;12.252;2023-10-13T07:16:17;102105.09;;;24.21;64.94
38786;BME280;24535;45.508;12.252;2023-10-13T07:18:43;102096.69;;;24.24;65.47
38786;BME280;24535;45.508;12.252;2023-10-13T07:21:15;102100.06;;;24.26;65.82
38786;BME280;24535;45.508;12.252;2023-10-13T07:23:40;102099.09;;;24.27;65.68
38786;BME280;24535;45.508;12.252;2023-10-13T07:26:12;102095.38;;;24.28;65.74
38786;BME280;24535;45.508;12.252;2023-10-13T07:28:38;102097.06;;;24.29;65.66
38786;BME280;24535;45.508;12.252;2023-10-13T07:31:13;102093.34;;;24.30;65.10
38786;BME280;24535;45.508;12.252;2023-10-13T07:33:40;102098.44;;;24.33;65.44
38786;BME280;24535;45.508;12.252;2023-10-13T07:36:07;102107.03;;;24.37;65.61
38786;BME280;24535;45.508;12.252;2023-10-13T07:39:02;102106.19;;;24.36;65.57
38786;BME280;24535;45.508;12.252;2023-10-13T07:41:50;102104.91;;;24.40;65.28
38786;BME280;24535;45.508;12.252;2023-10-13T07:44:21;102104.59;;;24.44;65.42
38786;BME280;24535;45.508;12.252;2023-10-13T07:46:50;102099.88;;;24.46;65.25
38786;BME280;24535;45.508;12.252;2023-10-13T07:49:23;102101.56;;;24.47;65.21
38786;BME280;24535;45.508;12.252;2023-10-13T07:51:49;102104.78;;;24.50;64.76
38786;BME280;24535;45.508;12.252;2023-10-13T07:54:16;102111.88;;;24.51;65.44
38786;BME280;24535;45.508;12.252;2023-10-13T07:56:47;102110.69;;;24.54;64.80
38786;BME280;24535;45.508;12.252;2023-10-13T07:59:12;102109.38;;;24.58;64.68
38786;BME280;24535;45.508;12.252;2023-10-13T08:01:38;102107.38;;;24.60;64.79
38786;BME280;24535;45.508;12.252;2023-10-13T08:04:08;102112.41;;;24.63;64.83
38786;BME280;24535;45.508;12.252;2023-10-13T08:06:48;102109.59;;;24.64;64.11
38786;BME280;24535;45.508;12.252;2023-10-13T08:09:13;102111.97;;;24.67;64.83
38786;BME280;24535;45.508;12.252;2023-10-13T08:12:05;102108.91;;;24.71;64.80
38786;BME280;24535;45.508;12.252;2023-10-13T08:14:32;102108.06;;;24.70;64.75
38786;BME280;24535;45.508;12.252;2023-10-13T08:16:59;102106.09;;;24.72;64.39
38786;BME280;24535;45.508;12.252;2023-10-13T08:19:31;102110.28;;;24.75;64.72
38786;BME280;24535;45.508;12.252;2023-10-13T08:22:09;102109.13;;;24.77;64.49
38786;BME280;24535;45.508;12.252;2023-10-13T08:24:41;102105.09;;;24.81;63.66
38786;BME280;24535;45.508;12.252;2023-10-13T08:27:07;102101.91;;;24.86;64.55
38786;BME280;24535;45.508;12.252;2023-10-13T08:29:51;102113.22;;;24.89;64.45
38786;BME280;24535;45.508;12.252;2023-10-13T08:32:19;102112.59;;;24.96;64.63
38786;BME280;24535;45.508;12.252;2023-10-13T08:34:56;102107.69;;;24.99;64.44
38786;BME280;24535;45.508;12.252;2023-10-13T08:37:31;102113.44;;;25.04;64.22
38786;BME280;24535;45.508;12.252;2023-10-13T08:40:15;102116.53;;;25.09;64.09
38786;BME280;24535;45.508;12.252;2023-10-13T08:43:12;102112.47;;;25.13;63.78
38786;BME280;24535;45.508;12.252;2023-10-13T08:45:39;102125.66;;;25.17;63.46
38786;BME280;24535;45.508;12.252;2023-10-13T08:48:05;102117.19;;;25.20;62.94
38786;BME280;24535;45.508;12.252;2023-10-13T08:50:39;102124.81;;;25.24;62.87
38786;BME280;24535;45.508;12.252;2023-10-13T08:53:28;102128.88;;;25.28;63.37
38786;BME280;24535;45.508;12.252;2023-10-13T08:56:02;102129.03;;;25.35;63.98
38786;BME280;24535;45.508;12.252;2023-10-13T08:58:31;102131.25;;;25.39;63.12
38786;BME280;24535;45.508;12.252;2023-10-13T09:01:18;102127.06;;;25.45;63.44
38786;BME280;24535;45.508;12.252;2023-10-13T09:04:06;102129.44;;;25.48;62.10
38786;BME280;24535;45.508;12.252;2023-10-13T09:09:15;102132.47;;;25.53;62.77
38786;BME280;24535;45.508;12.252;2023-10-13T09:11:52;102133.97;;;25.56;62.41
38786;BME280;24535;45.508;12.252;2023-10-13T09:14:18;102128.94;;;25.61;61.99
38786;BME280;24535;45.508;12.252;2023-10-13T09:17:02;102131.97;;;25.66;61.90
38786;BME280;24535;45.508;12.252;2023-10-13T09:19:42;102131.47;;;25.71;61.21
38786;BME280;24535;45.508;12.252;2023-10-13T09:22:18;102130.94;;;25.75;61.25
38786;BME280;24535;45.508;12.252;2023-10-13T09:24:53;102134.00;;;25.80;60.88
38786;BME280;24535;45.508;12.252;2023-10-13T09:27:18;102121.03;;;25.84;61.32
38786;BME280;24535;45.508;12.252;2023-10-13T09:29:53;102125.91;;;25.88;60.93
38786;BME280;24535;45.508;12.252;2023-10-13T09:32:19;102127.25;;;25.93;60.74
38786;BME280;24535;45.508;12.252;2023-10-13T09:34:46;102126.94;;;25.96;60.60
38786;BME280;24535;45.508;12.252;2023-10-13T09:37:13;102131.81;;;26.00;60.23
38786;BME280;24535;45.508;12.252;2023-10-13T09:39:46;102133.16;;;26.04;60.18
38786;BME280;24535;45.508;12.252;2023-10-13T09:42:13;102134.69;;;26.07;60.02
38786;BME280;24535;45.508;12.252;2023-10-13T09:44:41;102130.81;;;26.09;60.09
38786;BME280;24535;45.508;12.252;2023-10-13T09:47:07;102132.31;;;26.12;59.90
38786;BME280;24535;45.508;12.252;2023-10-13T09:49:43;102136.38;;;26.16;59.70
38786;BME280;24535;45.508;12.252;2023-10-13T09:52:17;102129.97;;;26.17;59.72
38786;BME280;24535;45.508;12.252;2023-10-13T09:57:24;102129.25;;;26.23;59.48
38786;BME280;24535;45.508;12.252;2023-10-13T09:59:59;102121.84;;;26.25;59.58
38786;BME280;24535;45.508;12.252;2023-10-13T10:02:31;102129.59;;;26.28;59.62
38786;BME280;24535;45.508;12.252;2023-10-13T10:04:57;102124.03;;;26.30;59.43
38786;BME280;24535;45.508;12.252;2023-10-13T10:07:42;102125.72;;;26.31;59.19
38786;BME280;24535;45.508;12.252;2023-10-13T10:10:09;102120.97;;;26.33;59.30
38786;BME280;24535;45.508;12.252;2023-10-13T10:17:42;102118.09;;;26.43;58.97
38786;BME280;24535;45.508;12.252;2023-10-13T10:20:07;102110.81;;;26.43;58.99
38786;BME280;24535;45.508;12.252;2023-10-13T10:22:56;102103.38;;;26.45;58.80
38786;BME280;24535;45.508;12.252;2023-10-13T10:25:29;102110.50;;;26.46;58.71
38786;BME280;24535;45.508;12.252;2023-10-13T10:28:00;102109.66;;;26.46;58.53
38786;BME280;24535;45.508;12.252;2023-10-13T10:30:29;102108.94;;;26.44;58.80
38786;BME280;24535;45.508;12.252;2023-10-13T10:32:55;102100.84;;;26.44;58.65
38786;BME280;24535;45.508;12.252;2023-10-13T10:35:24;102107.28;;;26.43;58.64
38786;BME280;24535;45.508;12.252;2023-10-13T10:37:55;102106.59;;;26.41;58.55
38786;BME280;24535;45.508;12.252;2023-10-13T10:40:36;102099.50;;;26.39;58.58
38786;BME280;24535;45.508;12.252;2023-10-13T10:43:13;102097.81;;;26.38;58.80
38786;BME280;24535;45.508;12.252;2023-10-13T10:45:45;102100.69;;;26.37;58.53
38786;BME280;24535;45.508;12.252;2023-10-13T10:48:14;102094.44;;;26.36;58.61
38786;BME280;24535;45.508;12.252;2023-10-13T10:50:52;102087.34;;;26.35;58.56
38786;BME280;24535;45.508;12.252;2023-10-13T10:53:23;102087.53;;;26.34;58.61
38786;BME280;24535;45.508;12.252;2023-10-13T10:56:07;102086.00;;;26.31;58.44
38786;BME280;24535;45.508;12.252;2023-10-13T10:58:55;102079.94;;;26.29;58.69
38786;BME280;24535;45.508;12.252;2023-10-13T11:01:21;102073.69;;;26.29;58.62
38786;BME280;24535;45.508;12.252;2023-10-13T11:03:54;102073.03;;;26.27;58.52
38786;BME280;24535;45.508;12.252;2023-10-13T11:06:23;102075.72;;;26.27;58.49
38786;BME280;24535;45.508;12.252;2023-10-13T11:08:49;102067.63;;;26.27;58.59
38786;BME280;24535;45.508;12.252;2023-10-13T11:11:30;102066.78;;;26.26;58.48
38786;BME280;24535;45.508;12.252;2023-10-13T11:14:00;102067.63;;;26.27;58.45
38786;BME280;24535;45.508;12.252;2023-10-13T11:16:55;102052.44;;;26.26;58.44
38786;BME280;24535;45.508;12.252;2023-10-13T11:19:40;102050.72;;;26.25;58.26
38786;BME280;24535;45.508;12.252;2023-10-13T11:22:16;102055.13;;;26.26;58.39
38786;BME280;24535;45.508;12.252;2023-10-13T11:25:04;102052.44;;;26.26;58.46
38786;BME280;24535;45.508;12.252;2023-10-13T11:27:36;102052.44;;;26.26;58.60
38786;BME280;24535;45.508;12.252;2023-10-13T11:30:14;102047.19;;;26.24;58.41
38786;BME280;24535;45.508;12.252;2023-10-13T11:33:01;102043.50;;;26.25;58.34
38786;BME280;24535;45.508;12.252;2023-10-13T11:35:30;102032.69;;;26.25;58.17
38786;BME280;24535;45.508;12.252;2023-10-13T11:38:14;102033.34;;;26.27;58.21
38786;BME280;24535;45.508;12.252;2023-10-13T11:40:40;102035.84;;;26.29;58.16
38786;BME280;24535;45.508;12.252;2023-10-13T11:43:08;102031.31;;;26.29;58.09
38786;BME280;24535;45.508;12.252;2023-10-13T11:45:47;102027.41;;;26.32;58.22
38786;BME280;24535;45.508;12.252;2023-10-13T11:48:42;102027.25;;;26.33;58.12
38786;BME280;24535;45.508;12.252;2023-10-13T11:51:17;102022.69;;;26.34;58.13
38786;BME280;24535;45.508;12.252;2023-10-13T11:53:43;102023.50;;;26.34;58.16
38786;BME280;24535;45.508;12.252;2023-10-13T11:56:08;102017.09;;;26.35;58.01
38786;BME280;24535;45.508;12.252;2023-10-13T11:58:35;102011.69;;;26.35;57.97
38786;BME280;24535;45.508;12.252;2023-10-13T12:01:00;102005.44;;;26.35;57.86
38786;BME280;24535;45.508;12.252;2023-10-13T12:03:37;102008.13;;;26.35;57.87
38786;BME280;24535;45.508;12.252;2023-10-13T12:06:21;102004.59;;;26.34;57.89
38786;BME280;24535;45.508;12.252;2023-10-13T12:09:02;102000.38;;;26.32;58.04
38786;BME280;24535;45.508;12.252;2023-10-13T12:11:48;102003.09;;;26.32;57.96
38786;BME280;24535;45.508;12.252;2023-10-13T12:14:16;101996.00;;;26.31;58.01
38786;BME280;24535;45.508;12.252;2023-10-13T12:16:46;101988.72;;;26.31;57.95
38786;BME280;24535;45.508;12.252;2023-10-13T12:19:16;101981.66;;;26.30;57.82
38786;BME280;24535;45.508;12.252;2023-10-13T12:21:42;101979.78;;;26.31;57.77
38786;BME280;24535;45.508;12.252;2023-10-13T12:24:08;101977.09;;;26.31;57.93
38786;BME280;24535;45.508;12.252;2023-10-13T12:26:37;101972.69;;;26.30;58.01
38786;BME280;24535;45.508;12.252;2023-10-13T12:29:06;101975.75;;;26.27;57.77
38786;BME280;24535;45.508;12.252;2023-10-13T12:31:32;101973.03;;;26.27;58.02
38786;BME280;24535;45.508;12.252;2023-10-13T12:33:58;101969.31;;;26.28;57.78
38786;BME280;24535;45.508;12.252;2023-10-13T12:36:31;101961.41;;;26.26;57.91
38786;BME280;24535;45.508;12.252;2023-10-13T12:39:06;101965.97;;;26.26;57.81
38786;BME280;24535;45.508;12.252;2023-10-13T12:41:31;101967.84;;;26.25;58.00
38786;BME280;24535;45.508;12.252;2023-10-13T12:44:18;101961.75;;;26.23;57.71
38786;BME280;24535;45.508;12.252;2023-10-13T12:47:02;101961.94;;;26.22;57.51
38786;BME280;24535;45.508;12.252;2023-10-13T12:49:45;101969.19;;;26.21;57.87
38786;BME280;24535;45.508;12.252;2023-10-13T12:52:14;101962.94;;;26.21;57.90
38786;BME280;24535;45.508;12.252;2023-10-13T12:54:46;101960.41;;;26.19;58.14
38786;BME280;24535;45.508;12.252;2023-10-13T12:57:24;101953.00;;;26.21;58.03
38786;BME280;24535;45.508;12.252;2023-10-13T12:59:49;101957.38;;;26.22;58.23
38786;BME280;24535;45.508;12.252;2023-10-13T13:02:19;101951.78;;;26.24;58.08
38786;BME280;24535;45.508;12.252;2023-10-13T13:04:49;101948.91;;;26.25;57.80
38786;BME280;24535;45.508;12.252;2023-10-13T13:07:19;101951.44;;;26.27;57.78
38786;BME280;24535;45.508;12.252;2023-10-13T13:09:45;101949.56;;;26.27;57.88
38786;BME280;24535;45.508;12.252;2023-10-13T13:12:10;101946.88;;;26.27;57.95
38786;BME280;24535;45.508;12.252;2023-10-13T13:14:38;101945.84;;;26.28;57.85
38786;BME280;24535;45.508;12.252;2023-10-13T13:17:06;101935.88;;;26.29;57.92
38786;BME280;24535;45.508;12.252;2023-10-13T13:19:36;101935.03;;;26.28;58.35
38786;BME280;24535;45.508;12.252;2023-10-13T13:22:04;101936.75;;;26.29;57.82
38786;BME280;24535;45.508;12.252;2023-10-13T13:24:30;101932.31;;;26.28;57.83
38786;BME280;24535;45.508;12.252;2023-10-13T13:26:56;101928.63;;;26.29;57.95
38786;BME280;24535;45.508;12.252;2023-10-13T13:29:21;101925.75;;;26.31;57.92
38786;BME280;24535;45.508;12.252;2023-10-13T13:31:46;101929.09;;;26.33;57.83
38786;BME280;24535;45.508;12.252;2023-10-13T13:34:12;101926.38;;;26.33;57.63
38786;BME280;24535;45.508;12.252;2023-10-13T13:36:42;101926.38;;;26.33;57.84
38786;BME280;24535;45.508;12.252;2023-10-13T13:39:10;101923.69;;;26.33;57.74
38786;BME280;24535;45.508;12.252;2023-10-13T13:41:35;101922.00;;;26.32;57.55
38786;BME280;24535;45.508;12.252;2023-10-13T13:44:01;101922.00;;;26.32;57.72
38786;BME280;24535;45.508;12.252;2023-10-13T13:46:38;101919.31;;;26.32;58.02
38786;BME280;24535;45.508;12.252;2023-10-13T13:49:06;101918.28;;;26.33;57.64
38786;BME280;24535;45.508;12.252;2023-10-13T13:51:43;101923.69;;;26.33;57.85
38786;BME280;24535;45.508;12.252;2023-10-13T13:54:08;101924.56;;;26.33;57.69
38786;BME280;24535;45.508;12.252;2023-10-13T13:56:33;101927.25;;;26.33;57.70
38786;BME280;24535;45.508;12.252;2023-10-13T13:59:03;101928.25;;;26.32;57.64
38786;BME280;24535;45.508;12.252;2023-10-13T14:01:33;101925.56;;;26.32;57.75
38786;BME280;24535;45.508;12.252;2023-10-13T14:04:02;101918.47;;;26.31;57.94
38786;BME280;24535;45.508;12.252;2023-10-13T14:06:32;101919.66;;;26.29;57.84
38786;BME280;24535;45.508;12.252;2023-10-13T14:08:59;101915.28;;;26.28;57.73
38786;BME280;24535;45.508;12.252;2023-10-13T14:11:27;101906.53;;;26.26;58.04
38786;BME280;24535;45.508;12.252;2023-10-13T14:14:07;101904.66;;;26.26;57.83
38786;BME280;24535;45.508;12.252;2023-10-13T14:16:39;101903.81;;;26.26;57.69
38786;BME280;24535;45.508;12.252;2023-10-13T14:19:10;101904.81;;;26.25;58.05
38786;BME280;24535;45.508;12.252;2023-10-13T14:21:35;101906.53;;;26.26;57.88
38786;BME280;24535;45.508;12.252;2023-10-13T14:24:00;101904.66;;;26.26;57.95
38786;BME280;24535;45.508;12.252;2023-10-13T14:26:27;101898.22;;;26.27;58.17
38786;BME280;24535;45.508;12.252;2023-10-13T14:28:52;101901.97;;;26.26;57.95
38786;BME280;24535;45.508;12.252;2023-10-13T14:31:27;101896.72;;;26.25;58.02
38786;BME280;24535;45.508;12.252;2023-10-13T14:33:55;101899.41;;;26.25;58.11
38786;BME280;24535;45.508;12.252;2023-10-13T14:36:22;101898.56;;;26.24;58.10
38786;BME280;24535;45.508;12.252;2023-10-13T14:38:47;101888.59;;;26.25;58.00
38786;BME280;24535;45.508;12.252;2023-10-13T14:41:18;101894.88;;;26.25;58.02
38786;BME280;24535;45.508;12.252;2023-10-13T14:43:44;101887.59;;;26.26;58.07
38786;BME280;24535;45.508;12.252;2023-10-13T14:46:13;101893.00;;;26.26;58.02
38786;BME280;24535;45.508;12.252;2023-10-13T14:48:38;101885.06;;;26.24;57.96
38786;BME280;24535;45.508;12.252;2023-10-13T14:51:08;101886.94;;;26.24;57.80
38786;BME280;24535;45.508;12.252;2023-10-13T14:53:33;101889.81;;;26.22;57.89
38786;BME280;24535;45.508;12.252;2023-10-13T14:56:00;101889.16;;;26.20;57.93
38786;BME280;24535;45.508;12.252;2023-10-13T14:58:25;101890.16;;;26.19;58.10
38786;BME280;24535;45.508;12.252;2023-10-13T15:00:51;101886.97;;;26.16;58.14
38786;BME280;24535;45.508;12.252;2023-10-13T15:03:17;101886.13;;;26.15;58.07
38786;BME280;24535;45.508;12.252;2023-10-13T15:05:43;101886.31;;;26.13;58.21
38786;BME280;24535;45.508;12.252;2023-10-13T15:08:09;101883.63;;;26.13;58.18
38786;BME280;24535;45.508;12.252;2023-10-13T15:10:35;101886.31;;;26.13;58.27
38786;BME280;24535;45.508;12.252;2023-10-13T15:13:03;101892.72;;;26.12;58.21
38786;BME280;24535;45.508;12.252;2023-10-13T15:15:28;101882.09;;;26.11;58.32
38786;BME280;24535;45.508;12.252;2023-10-13T15:17:57;101885.00;;;26.09;58.07
38786;BME280;24535;45.508;12.252;2023-10-13T15:20:22;101881.28;;;26.10;58.25
38786;BME280;24535;45.508;12.252;2023-10-13T15:22:48;101878.72;;;26.09;58.32
38786;BME280;24535;45.508;12.252;2023-10-13T15:25:13;101880.59;;;26.08;58.20
38786;BME280;24535;45.508;12.252;2023-10-13T15:28:08;101877.25;;;26.06;58.22
38786;BME280;24535;45.508;12.252;2023-10-13T15:30:35;101871.84;;;26.06;58.38
38786;BME280;24535;45.508;12.252;2023-10-13T15:33:26;101873.69;;;26.06;58.24
38786;BME280;24535;45.508;12.252;2023-10-13T15:35:51;101867.47;;;26.05;58.39
38786;BME280;24535;45.508;12.252;2023-10-13T15:38:16;101868.47;;;26.04;58.46
38786;BME280;24535;45.508;12.252;2023-10-13T15:40:44;101867.63;;;26.04;58.50
38786;BME280;24535;45.508;12.252;2023-10-13T15:43:10;101869.47;;;26.03;58.61
38786;BME280;24535;45.508;12.252;2023-10-13T15:45:38;101863.25;;;26.03;58.54
38786;BME280;24535;45.508;12.252;2023-10-13T15:48:08;101863.25;;;26.03;58.53
38786;BME280;24535;45.508;12.252;2023-10-13T15:50:38;101868.47;;;26.04;58.54
38786;BME280;24535;45.508;12.252;2023-10-13T15:53:07;101865.94;;;26.03;58.68
38786;BME280;24535;45.508;12.252;2023-10-13T15:55:36;101860.72;;;26.01;58.57
38786;BME280;24535;45.508;12.252;2023-10-13T15:58:02;101864.28;;;26.02;59.00
38786;BME280;24535;45.508;12.252;2023-10-13T16:00:27;101864.28;;;26.02;58.93
38786;BME280;24535;45.508;12.252;2023-10-13T16:02:54;101863.44;;;26.01;58.79
38786;BME280;24535;45.508;12.252;2023-10-13T16:05:22;101858.03;;;26.01;58.73
38786;BME280;24535;45.508;12.252;2023-10-13T16:07:50;101854.47;;;26.01;58.84
38786;BME280;24535;45.508;12.252;2023-10-13T16:10:16;101850.09;;;26.00;58.71
38786;BME280;24535;45.508;12.252;2023-10-13T16:12:41;101856.50;;;25.99;58.59
38786;BME280;24535;45.508;12.252;2023-10-13T16:15:10;101851.94;;;25.99;58.92
38786;BME280;24535;45.508;12.252;2023-10-13T16:17:39;101852.97;;;25.98;58.53
38786;BME280;24535;45.508;12.252;2023-10-13T16:20:05;101852.97;;;25.98;58.71
38786;BME280;24535;45.508;12.252;2023-10-13T16:22:37;101850.44;;;25.97;58.64
38786;BME280;24535;45.508;12.252;2023-10-13T16:25:02;101856.84;;;25.96;58.85
38786;BME280;24535;45.508;12.252;2023-10-13T16:27:31;101855.19;;;25.95;58.96
38786;BME280;24535;45.508;12.252;2023-10-13T16:29:57;101855.19;;;25.95;58.99
38786;BME280;24535;45.508;12.252;2023-10-13T16:32:22;101852.66;;;25.93;59.10
38786;BME280;24535;45.508;12.252;2023-10-13T16:34:51;101847.28;;;25.93;59.12
38786;BME280;24535;45.508;12.252;2023-10-13T16:37:16;101850.13;;;25.92;59.38
38786;BME280;24535;45.508;12.252;2023-10-13T16:39:42;101847.28;;;25.93;59.13
38786;BME280;24535;45.508;12.252;2023-10-13T16:42:09;101847.44;;;25.92;59.33
38786;BME280;24535;45.508;12.252;2023-10-13T16:44:36;101848.44;;;25.91;59.29
38786;BME280;24535;45.508;12.252;2023-10-13T16:47:03;101853.16;;;25.88;59.50
38786;BME280;24535;45.508;12.252;2023-10-13T16:49:29;101855.03;;;25.88;59.27
38786;BME280;24535;45.508;12.252;2023-10-13T16:51:55;101852.34;;;25.88;59.54
38786;BME280;24535;45.508;12.252;2023-10-13T16:54:20;101849.81;;;25.86;59.78
38786;BME280;24535;45.508;12.252;2023-10-13T16:56:46;101848.16;;;25.85;59.90
38786;BME280;24535;45.508;12.252;2023-10-13T16:59:12;101845.59;;;25.84;60.23
38786;BME280;24535;45.508;12.252;2023-10-13T17:01:37;101851.19;;;25.82;59.91
38786;BME280;24535;45.508;12.252;2023-10-13T17:04:02;101852.22;;;25.81;59.91
38786;BME280;24535;45.508;12.252;2023-10-13T17:06:29;101850.50;;;25.80;59.61
38786;BME280;24535;45.508;12.252;2023-10-13T17:08:54;101846.97;;;25.80;60.12
38786;BME280;24535;45.508;12.252;2023-10-13T17:11:21;101847.16;;;25.78;59.84
38786;BME280;24535;45.508;12.252;2023-10-13T17:13:46;101849.13;;;25.76;60.38
38786;BME280;24535;45.508;12.252;2023-10-13T17:16:14;101842.91;;;25.76;60.19
38786;BME280;24535;45.508;12.252;2023-10-13T17:18:42;101843.09;;;25.74;60.40
38786;BME280;24535;45.508;12.252;2023-10-13T17:21:14;101844.78;;;25.75;60.36
38786;BME280;24535;45.508;12.252;2023-10-13T17:23:40;101844.78;;;25.75;59.94
38786;BME280;24535;45.508;12.252;2023-10-13T17:26:05;101836.66;;;25.75;59.79
38786;BME280;24535;45.508;12.252;2023-10-13T17:28:32;101833.97;;;25.75;59.89
38786;BME280;24535;45.508;12.252;2023-10-13T17:30:57;101836.84;;;25.74;59.81
38786;BME280;24535;45.508;12.252;2023-10-13T17:33:22;101840.56;;;25.73;59.75
38786;BME280;24535;45.508;12.252;2023-10-13T17:35:49;101842.41;;;25.72;59.60
38786;BME280;24535;45.508;12.252;2023-10-13T17:38:14;101834.69;;;25.69;59.53
38786;BME280;24535;45.508;12.252;2023-10-13T17:40:42;101834.84;;;25.68;59.81
38786;BME280;24535;45.508;12.252;2023-10-13T17:43:07;101836.72;;;25.67;59.61
38786;BME280;24535;45.508;12.252;2023-10-13T17:45:33;101826.25;;;25.64;59.94
38786;BME280;24535;45.508;12.252;2023-10-13T17:47:59;101834.53;;;25.62;59.73
38786;BME280;24535;45.508;12.252;2023-10-13T17:50:25;101839.09;;;25.62;59.83
38786;BME280;24535;45.508;12.252;2023-10-13T17:52:51;101832.03;;;25.61;59.82
38786;BME280;24535;45.508;12.252;2023-10-13T17:55:16;101830.31;;;25.60;60.04
38786;BME280;24535;45.508;12.252;2023-10-13T17:57:42;101828.63;;;25.59;59.86
38786;BME280;24535;45.508;12.252;2023-10-13T18:00:08;101831.53;;;25.57;60.14
38786;BME280;24535;45.508;12.252;2023-10-13T18:02:39;101824.44;;;25.56;60.07
38786;BME280;24535;45.508;12.252;2023-10-13T18:05:10;101830.84;;;25.55;59.92
38786;BME280;24535;45.508;12.252;2023-10-13T18:07:37;101824.59;;;25.55;59.94
38786;BME280;24535;45.508;12.252;2023-10-13T18:10:02;101826.66;;;25.53;60.35
38786;BME280;24535;45.508;12.252;2023-10-13T18:12:27;101819.53;;;25.52;60.00
38786;BME280;24535;45.508;12.252;2023-10-13T18:14:56;101822.25;;;25.52;60.13
38786;BME280;24535;45.508;12.252;2023-10-13T18:17:21;101819.75;;;25.50;60.58
38786;BME280;24535;45.508;12.252;2023-10-13T18:19:47;101821.59;;;25.50;60.17
38786;BME280;24535;45.508;12.252;2023-10-13T18:22:12;101818.91;;;25.50;59.99
38786;BME280;24535;45.508;12.252;2023-10-13T18:24:41;101818.22;;;25.48;59.96
38786;BME280;24535;45.508;12.252;2023-10-13T18:27:07;101812.81;;;25.48;60.39
38786;BME280;24535;45.508;12.252;2023-10-13T18:29:32;101816.53;;;25.47;60.02
38786;BME280;24535;45.508;12.252;2023-10-13T18:31:57;101820.06;;;25.47;60.21
38786;BME280;24535;45.508;12.252;2023-10-13T18:34:24;101814.88;;;25.46;60.07
38786;BME280;24535;45.508;12.252;2023-10-13T18:36:49;101813.19;;;25.45;60.24
38786;BME280;24535;45.508;12.252;2023-10-13T18:39:17;101810.50;;;25.45;59.74
38786;BME280;24535;45.508;12.252;2023-10-13T18:41:49;101816.88;;;25.44;59.68
38786;BME280;24535;45.508;12.252;2023-10-13T18:44:14;101817.91;;;25.43;59.88
38786;BME280;24535;45.508;12.252;2023-10-13T18:46:40;101819.94;;;25.40;59.76
38786;BME280;24535;45.508;12.252;2023-10-13T18:49:05;101823.81;;;25.38;59.96
38786;BME280;24535;45.508;12.252;2023-10-13T18:51:30;101820.28;;;25.37;59.31
38786;BME280;24535;45.508;12.252;2023-10-13T18:53:57;101819.44;;;25.37;59.30
38786;BME280;24535;45.508;12.252;2023-10-13T18:56:23;101822.16;;;25.37;59.18